createdAt,value
2018-10-03T00:01:49.982Z,4.78
2018-10-03T00:04:18.177Z,4.00
2018-10-03T00:06:47.046Z,5.55
2018-10-03T00:09:14.703Z,5.33
2018-10-03T00:11:42.268Z,4.60
2018-10-03T00:14:09.955Z,4.92
2018-10-03T00:16:37.371Z,4.90
2018-10-03T00:19:05.136Z,5.28
2018-10-03T00:21:32.488Z,5.22
2018-10-03T00:24:06.771Z,5.75
2018-10-03T00:26:34.400Z,5.87
2018-10-03T00:29:01.768Z,4.95
2018-10-03T00:31:29.517Z,6.00
2018-10-03T00:33:56.877Z,5.78
2018-10-03T00:36:24.440Z,5.40
2018-10-03T00:38:52.307Z,5.85
2018-10-03T00:41:19.655Z,4.70
2018-10-03T00:43:47.222Z,5.20
2018-10-03T00:46:14.787Z,4.72
2018-10-03T00:48:42.412Z,4.90
2018-10-03T00:51:09.746Z,4.78
2018-10-03T00:53:37.117Z,4.70
2018-10-03T00:56:05.332Z,5.12
2018-10-03T00:58:32.911Z,4.85
2018-10-03T01:01:00.438Z,5.83
2018-10-03T01:03:27.812Z,6.05
2018-10-03T01:05:55.389Z,5.85
2018-10-03T01:08:22.970Z,4.58
2018-10-03T01:10:50.316Z,4.85
2018-10-03T01:13:17.661Z,4.90
2018-10-03T01:15:45.827Z,6.05
2018-10-03T01:18:13.177Z,5.25
2018-10-03T01:20:40.574Z,6.08
2018-10-03T01:23:08.370Z,4.97
2018-10-03T01:25:35.711Z,6.12
2018-10-03T01:28:03.274Z,4.60
2018-10-03T01:30:30.626Z,4.85
2018-10-03T01:32:57.951Z,6.05
2018-10-03T01:35:25.570Z,7.05
2018-10-03T01:37:53.156Z,5.10
2018-10-03T01:40:20.510Z,5.03
2018-10-03T01:42:47.863Z,5.00
2018-10-03T01:45:15.217Z,4.28
2018-10-03T01:47:42.523Z,5.20
2018-10-03T01:50:09.925Z,6.55
2018-10-03T01:52:37.706Z,5.42
2018-10-03T01:55:05.509Z,4.62
2018-10-03T01:57:32.823Z,4.67
2018-10-03T02:00:00.179Z,5.60
2018-10-03T02:02:27.744Z,5.28
2018-10-03T02:04:55.054Z,4.45
2018-10-03T02:07:22.424Z,6.78
2018-10-03T02:09:49.739Z,5.45
2018-10-03T02:12:17.309Z,4.37
2018-10-03T02:14:44.699Z,4.97
2018-10-03T02:17:12.064Z,5.30
2018-10-03T02:19:39.728Z,4.67
2018-10-03T02:22:07.081Z,4.35
2018-10-03T02:24:34.670Z,6.17
2018-10-03T02:27:01.988Z,4.25
2018-10-03T02:29:29.340Z,5.78
2018-10-03T02:31:56.699Z,4.67
2018-10-03T02:34:24.016Z,5.50
2018-10-03T02:36:51.835Z,4.47
2018-10-03T02:39:19.641Z,5.87
2018-10-03T02:41:46.954Z,4.60
2018-10-03T02:44:15.210Z,5.37
2018-10-03T02:46:42.528Z,5.00
2018-10-03T02:49:09.879Z,5.15
2018-10-03T02:51:37.470Z,5.70
2018-10-03T02:54:05.410Z,5.10
2018-10-03T02:56:33.050Z,4.30
2018-10-03T02:59:00.366Z,4.00
2018-10-03T03:01:27.851Z,3.85
2018-10-03T03:03:55.133Z,4.28
2018-10-03T03:06:22.460Z,6.45
2018-10-03T03:08:49.877Z,5.50
2018-10-03T03:11:17.443Z,4.40
2018-10-03T03:13:45.002Z,4.35
2018-10-03T03:16:12.369Z,5.28
2018-10-03T03:18:39.704Z,5.12
2018-10-03T03:21:07.054Z,5.75
2018-10-03T03:23:34.386Z,5.35
2018-10-03T03:26:01.967Z,4.45
2018-10-03T03:28:29.547Z,4.97
2018-10-03T03:30:57.577Z,4.25
2018-10-03T03:33:24.931Z,4.17
2018-10-03T03:35:52.495Z,4.83
2018-10-03T03:38:20.232Z,4.90
2018-10-03T03:40:47.839Z,4.45
2018-10-03T03:43:15.390Z,5.05
2018-10-03T03:45:42.778Z,4.87
2018-10-03T03:48:10.117Z,5.78
2018-10-03T03:50:37.686Z,4.85
2018-10-03T03:53:06.270Z,5.00
2018-10-03T03:55:33.862Z,4.08
2018-10-03T03:58:01.625Z,5.33
2018-10-03T04:00:28.982Z,5.65
2018-10-03T04:02:56.359Z,4.75
2018-10-03T04:05:23.922Z,5.00
2018-10-03T04:07:51.553Z,4.33
2018-10-03T04:10:18.940Z,4.03
2018-10-03T04:12:46.527Z,4.90
2018-10-03T04:15:14.161Z,4.97
2018-10-03T04:17:41.481Z,4.80
2018-10-03T04:20:08.791Z,5.15
2018-10-03T04:22:36.165Z,4.15
2018-10-03T04:25:03.803Z,6.28
2018-10-03T04:27:31.119Z,4.90
2018-10-03T04:29:59.351Z,4.92
2018-10-03T04:32:27.015Z,4.67
2018-10-03T04:34:54.348Z,5.17
2018-10-03T04:37:21.704Z,4.70
2018-10-03T04:39:49.041Z,4.80
2018-10-03T04:42:16.425Z,3.92
2018-10-03T04:44:43.727Z,5.37
2018-10-03T04:47:11.038Z,4.85
2018-10-03T04:49:38.356Z,4.40
2018-10-03T04:52:05.725Z,5.65
2018-10-03T04:54:33.055Z,6.72
2018-10-03T04:57:00.395Z,5.85
2018-10-03T04:59:28.806Z,4.25
2018-10-03T05:01:56.143Z,4.70
2018-10-03T05:04:23.554Z,4.58
2018-10-03T05:06:51.082Z,4.58
2018-10-03T05:09:18.406Z,4.70
2018-10-03T05:11:45.722Z,4.53
2018-10-03T05:14:13.133Z,5.85
2018-10-03T05:16:40.474Z,4.78
2018-10-03T05:19:07.803Z,4.67
2018-10-03T05:21:35.109Z,3.85
2018-10-03T05:24:02.453Z,4.90
2018-10-03T05:26:32.228Z,5.17
2018-10-03T05:28:59.640Z,4.47
2018-10-03T05:31:27.285Z,5.15
2018-10-03T05:33:54.747Z,5.08
2018-10-03T05:36:22.122Z,4.85
2018-10-03T05:38:49.659Z,4.62
2018-10-03T05:41:17.081Z,4.33
2018-10-03T05:43:44.473Z,4.37
2018-10-03T05:46:12.484Z,5.05
2018-10-03T05:51:23.884Z,6.00
2018-10-03T05:53:51.285Z,6.05
2018-10-03T05:56:18.627Z,5.10
2018-10-03T05:58:45.901Z,5.97
2018-10-03T06:01:13.194Z,4.33
2018-10-03T06:03:40.485Z,5.22
2018-10-03T06:06:07.883Z,4.70
2018-10-03T06:08:35.560Z,4.62
2018-10-03T06:11:03.081Z,5.65
2018-10-03T06:13:30.645Z,10.45
2018-10-03T06:15:58.099Z,10.20
2018-10-03T06:18:25.702Z,5.17
2018-10-03T06:20:52.983Z,4.97
2018-10-03T06:23:20.247Z,6.33
2018-10-03T06:25:47.534Z,5.12
2018-10-03T06:28:14.870Z,4.78
2018-10-03T06:30:42.214Z,4.70
2018-10-03T06:33:09.816Z,5.30
2018-10-03T06:35:37.104Z,5.80
2018-10-03T06:38:04.448Z,4.22
2018-10-03T06:40:31.800Z,4.55
2018-10-03T06:43:00.116Z,4.47
2018-10-03T06:45:27.546Z,5.55
2018-10-03T06:47:55.327Z,4.95
2018-10-03T06:50:22.636Z,5.20
2018-10-03T06:52:50.062Z,4.37
2018-10-03T06:55:17.929Z,4.72
2018-10-03T06:57:45.464Z,5.50
2018-10-03T07:00:13.048Z,5.15
2018-10-03T07:02:40.343Z,4.67
2018-10-03T07:05:07.697Z,4.58
2018-10-03T07:07:34.982Z,5.53
2018-10-03T07:10:02.643Z,5.00
2018-10-03T07:12:30.292Z,5.65
2018-10-03T07:14:57.609Z,4.67
2018-10-03T07:17:25.439Z,6.25
2018-10-03T07:19:52.863Z,4.30
2018-10-03T07:22:20.181Z,4.58
2018-10-03T07:24:47.538Z,5.25
2018-10-03T07:27:14.883Z,4.95
2018-10-03T07:29:42.512Z,5.03
2018-10-03T07:32:09.895Z,5.20
2018-10-03T07:34:37.227Z,5.10
2018-10-03T07:37:04.599Z,5.67
2018-10-03T07:39:31.928Z,5.53
2018-10-03T07:41:59.258Z,5.30
2018-10-03T07:44:26.873Z,5.20
2018-10-03T07:46:54.470Z,5.63
2018-10-03T07:49:22.099Z,5.40
2018-10-03T07:51:49.394Z,5.23
2018-10-03T07:54:17.005Z,4.83
2018-10-03T07:56:45.156Z,5.67
2018-10-03T07:59:12.432Z,5.70
2018-10-03T08:01:39.797Z,5.43
2018-10-03T08:04:07.192Z,5.80
2018-10-03T08:06:34.577Z,5.33
2018-10-03T08:09:01.958Z,4.97
2018-10-03T08:11:29.276Z,5.37
2018-10-03T08:13:56.664Z,5.10
2018-10-03T08:16:24.044Z,4.30
2018-10-03T08:18:51.360Z,4.50
2018-10-03T08:21:18.716Z,5.47
2018-10-03T08:23:46.105Z,4.10
2018-10-03T08:26:13.769Z,4.75
2018-10-03T08:28:41.093Z,5.25
2018-10-03T08:31:08.454Z,4.92
2018-10-03T08:33:35.996Z,4.50
2018-10-03T08:36:03.391Z,4.60
2018-10-03T08:38:31.333Z,4.40
2018-10-03T08:40:58.644Z,5.43
2018-10-03T08:43:25.948Z,4.33
2018-10-03T08:45:53.316Z,4.93
2018-10-03T08:48:20.886Z,5.47
2018-10-03T08:50:48.423Z,4.83
2018-10-03T08:53:15.701Z,4.97
2018-10-03T08:55:43.322Z,4.77
2018-10-03T08:58:10.908Z,5.13
2018-10-03T09:00:38.353Z,5.40
2018-10-03T09:03:05.697Z,4.60
2018-10-03T09:05:33.414Z,4.70
2018-10-03T09:08:09.663Z,5.37
2018-10-03T09:10:37.410Z,4.63
2018-10-03T09:13:04.968Z,4.83
2018-10-03T09:15:32.283Z,4.57
2018-10-03T09:17:59.722Z,5.17
2018-10-03T09:20:27.441Z,4.00
2018-10-03T09:22:54.783Z,5.57
2018-10-03T09:25:22.394Z,4.60
2018-10-03T09:27:49.706Z,4.30
2018-10-03T09:30:17.016Z,4.67
2018-10-03T09:32:44.319Z,4.23
2018-10-03T09:35:11.912Z,4.80
2018-10-03T09:37:39.256Z,4.90
2018-10-03T09:40:06.615Z,4.87
2018-10-03T09:42:33.995Z,3.67
2018-10-03T09:45:01.548Z,4.47
2018-10-03T09:47:28.872Z,4.67
2018-10-03T09:49:56.296Z,4.00
2018-10-03T09:52:23.743Z,5.00
2018-10-03T09:54:51.354Z,5.10
2018-10-03T09:57:18.700Z,4.27
2018-10-03T09:59:46.060Z,4.83
2018-10-03T10:02:13.671Z,4.90
2018-10-03T10:04:41.036Z,4.07
2018-10-03T10:07:08.352Z,3.40
2018-10-03T10:09:35.676Z,4.17
2018-10-03T10:12:03.271Z,4.10
2018-10-03T10:14:30.685Z,4.60
2018-10-03T10:16:58.043Z,4.17
2018-10-03T10:19:25.850Z,3.70
2018-10-03T10:21:53.673Z,4.45
2018-10-03T10:24:21.094Z,4.40
2018-10-03T10:26:48.440Z,4.10
2018-10-03T10:29:16.018Z,4.08
2018-10-03T10:31:43.363Z,4.00
2018-10-03T10:34:11.020Z,4.53
2018-10-03T10:36:38.340Z,4.53
2018-10-03T10:39:07.383Z,5.00
2018-10-03T10:41:34.927Z,5.33
2018-10-03T10:44:02.183Z,4.17
2018-10-03T10:46:29.802Z,3.40
2018-10-03T10:48:57.168Z,3.80
2018-10-03T10:51:24.548Z,4.30
2018-10-03T10:53:51.961Z,4.17
2018-10-03T10:56:19.408Z,3.60
2018-10-03T10:58:47.237Z,3.77
2018-10-03T11:01:15.044Z,3.53
2018-10-03T11:03:42.432Z,3.80
2018-10-03T11:06:10.681Z,3.83
2018-10-03T11:08:38.071Z,3.37
2018-10-03T11:11:05.588Z,3.73
2018-10-03T11:13:33.286Z,3.20
2018-10-03T11:16:00.709Z,4.20
2018-10-03T11:18:28.309Z,4.13
2018-10-03T11:20:55.972Z,4.30
2018-10-03T11:23:24.200Z,3.23
2018-10-03T11:25:51.592Z,4.20
2018-10-03T11:28:19.161Z,3.80
2018-10-03T11:30:46.787Z,3.60
2018-10-03T11:33:14.153Z,3.50
2018-10-03T11:35:41.595Z,3.27
2018-10-03T11:38:08.992Z,3.67
2018-10-03T11:40:36.325Z,3.40
2018-10-03T11:43:03.870Z,3.70
2018-10-03T11:45:31.205Z,2.80
2018-10-03T11:47:58.505Z,2.77
2018-10-03T11:50:26.663Z,3.72
2018-10-03T11:52:53.999Z,3.87
2018-10-03T11:55:21.388Z,3.85
2018-10-03T11:57:48.770Z,4.08
2018-10-03T12:00:16.095Z,4.47
2018-10-03T12:02:43.764Z,3.80
2018-10-03T12:05:11.182Z,4.55
2018-10-03T12:07:38.658Z,4.20
2018-10-03T12:10:06.368Z,3.55
2018-10-03T12:12:33.707Z,3.55
2018-10-03T12:15:01.435Z,4.80
2018-10-03T12:17:29.603Z,3.55
2018-10-03T12:19:56.980Z,3.12
2018-10-03T12:22:24.625Z,3.02
2018-10-03T12:24:51.976Z,3.15
2018-10-03T12:27:19.664Z,3.77
2018-10-03T12:29:47.733Z,3.12
2018-10-03T12:32:16.198Z,3.00
2018-10-03T12:34:45.448Z,3.40
2018-10-03T12:37:12.848Z,3.50
2018-10-03T12:39:42.699Z,2.70
2018-10-03T12:42:10.048Z,2.92
2018-10-03T12:44:37.502Z,3.15
2018-10-03T12:47:04.828Z,3.27
2018-10-03T12:49:32.190Z,3.02
2018-10-03T12:51:59.856Z,3.15
2018-10-03T12:54:27.185Z,3.40
2018-10-03T12:56:54.544Z,3.55
2018-10-03T12:59:21.904Z,3.50
2018-10-03T13:01:49.255Z,3.85
2018-10-03T13:04:16.661Z,3.12
2018-10-03T13:06:44.476Z,3.83
2018-10-03T13:09:13.773Z,3.55
2018-10-03T13:11:41.580Z,3.62
2018-10-03T13:14:09.030Z,3.58
2018-10-03T13:16:36.355Z,3.70
2018-10-03T13:19:04.168Z,3.37
2018-10-03T13:21:31.503Z,3.45
2018-10-03T13:23:58.850Z,3.30
2018-10-03T13:26:26.234Z,3.60
2018-10-03T13:28:54.133Z,3.33
2018-10-03T13:31:21.571Z,3.45
2018-10-03T13:33:49.275Z,3.17
2018-10-03T13:36:16.712Z,3.22
2018-10-03T13:38:44.348Z,3.60
2018-10-03T13:41:11.931Z,3.60
2018-10-03T13:43:39.328Z,3.60
2018-10-03T13:46:06.962Z,2.80
2018-10-03T13:48:34.320Z,2.95
2018-10-03T13:51:01.964Z,3.55
2018-10-03T13:53:29.310Z,3.70
2018-10-03T13:55:56.909Z,3.10
2018-10-03T13:58:24.195Z,3.37
2018-10-03T14:00:51.808Z,4.15
2018-10-03T14:03:19.141Z,2.52
2018-10-03T14:05:46.762Z,2.92
2018-10-03T14:08:14.084Z,3.50
2018-10-03T14:10:41.363Z,2.50
2018-10-03T14:13:08.893Z,2.80
2018-10-03T14:15:36.279Z,2.37
2018-10-03T14:18:03.919Z,3.12
2018-10-03T14:20:31.264Z,2.60
2018-10-03T14:22:58.976Z,2.47
2018-10-03T14:25:26.287Z,3.47
2018-10-03T14:27:53.923Z,2.60
2018-10-03T14:30:21.231Z,2.30
2018-10-03T14:32:48.559Z,2.65
2018-10-03T14:35:16.117Z,2.42
2018-10-03T14:37:43.648Z,2.80
2018-10-03T14:40:11.649Z,2.45
2018-10-03T14:42:38.927Z,3.27
2018-10-03T14:45:06.283Z,2.80
2018-10-03T14:47:33.601Z,3.00
2018-10-03T14:50:01.194Z,4.20
2018-10-03T14:52:28.797Z,2.60
2018-10-03T14:54:57.158Z,2.40
2018-10-03T14:57:24.781Z,3.20
2018-10-03T14:59:52.453Z,2.70
2018-10-03T15:02:20.292Z,2.90
2018-10-03T15:04:47.695Z,3.50
2018-10-03T15:07:16.852Z,2.80
2018-10-03T15:09:44.216Z,2.75
2018-10-03T15:12:11.536Z,2.47
2018-10-03T15:14:40.048Z,3.40
2018-10-03T15:17:07.553Z,2.87
2018-10-03T15:19:34.888Z,2.70
2018-10-03T15:22:02.477Z,2.75
2018-10-03T15:24:29.818Z,2.42
2018-10-03T15:26:57.320Z,2.58
2018-10-03T15:29:24.936Z,2.50
2018-10-03T15:31:52.249Z,2.75
2018-10-03T15:34:19.567Z,3.00
2018-10-03T15:36:47.262Z,2.90
2018-10-03T15:39:14.953Z,3.05
2018-10-03T15:41:42.488Z,2.70
2018-10-03T15:44:10.038Z,2.98
2018-10-03T15:46:37.604Z,2.70
2018-10-03T15:49:04.925Z,2.83
2018-10-03T15:51:32.233Z,2.27
2018-10-03T15:53:59.581Z,3.12
2018-10-03T15:56:26.995Z,2.77
2018-10-03T15:58:55.429Z,3.92
2018-10-03T16:01:25.469Z,2.90
2018-10-03T16:03:56.079Z,2.90
2018-10-03T16:06:25.669Z,2.42
2018-10-03T16:08:53.955Z,2.27
2018-10-03T16:11:24.235Z,2.52
2018-10-03T16:13:53.609Z,2.20
2018-10-03T16:16:21.761Z,2.90
2018-10-03T16:18:50.731Z,3.20
2018-10-03T16:21:18.440Z,3.10
2018-10-03T16:23:45.931Z,3.02
2018-10-03T16:26:15.060Z,3.58
2018-10-03T16:28:42.573Z,3.67
2018-10-03T16:31:10.592Z,3.25
2018-10-03T16:33:37.939Z,2.85
2018-10-03T16:36:05.384Z,2.75
2018-10-03T16:38:32.769Z,4.60
2018-10-03T16:41:00.031Z,3.67
2018-10-03T16:43:27.594Z,3.35
2018-10-03T16:45:54.875Z,3.00
2018-10-03T16:48:22.386Z,2.83
2018-10-03T16:50:49.690Z,3.15
2018-10-03T16:53:17.017Z,4.25
2018-10-03T16:55:44.322Z,4.35
2018-10-03T16:58:11.918Z,3.20
2018-10-03T17:00:39.237Z,3.25
2018-10-03T17:03:06.596Z,3.15
2018-10-03T17:05:33.924Z,3.50
2018-10-03T17:08:03.083Z,3.40
2018-10-03T17:10:30.388Z,2.72
2018-10-03T17:12:57.681Z,3.30
2018-10-03T17:15:24.973Z,3.80
2018-10-03T17:17:52.296Z,2.95
2018-10-03T17:20:19.647Z,3.20
2018-10-03T17:22:46.913Z,3.37
2018-10-03T17:25:14.562Z,2.90
2018-10-03T17:27:41.895Z,3.92
2018-10-03T17:30:09.215Z,4.30
2018-10-03T17:32:36.764Z,2.85
2018-10-03T17:35:04.506Z,3.72
2018-10-03T17:37:32.036Z,2.75
2018-10-03T17:39:59.888Z,3.30
2018-10-03T17:42:27.193Z,3.40
2018-10-03T17:44:54.548Z,4.10
2018-10-03T17:47:22.303Z,2.98
2018-10-03T17:49:50.118Z,3.05
2018-10-03T17:52:17.405Z,2.60
2018-10-03T17:54:45.090Z,3.05
2018-10-03T17:57:12.409Z,3.05
2018-10-03T17:59:39.725Z,3.05
2018-10-03T18:02:09.953Z,4.12
2018-10-03T18:04:37.336Z,3.47
2018-10-03T18:07:04.621Z,3.00
2018-10-03T18:09:31.952Z,3.55
2018-10-03T18:11:59.268Z,4.03
2018-10-03T18:14:30.498Z,4.25
2018-10-03T18:16:57.834Z,3.47
2018-10-03T18:19:25.303Z,3.20
2018-10-03T18:21:52.993Z,3.02
2018-10-03T18:24:20.563Z,3.83
2018-10-03T18:26:48.446Z,3.25
2018-10-03T18:29:17.027Z,3.35
2018-10-03T18:31:44.449Z,3.17
2018-10-03T18:34:11.755Z,3.45
2018-10-03T18:36:39.001Z,3.27
2018-10-03T18:39:07.106Z,3.80
2018-10-03T18:41:34.341Z,4.22
2018-10-03T18:44:01.592Z,3.60
2018-10-03T18:46:29.156Z,3.40
2018-10-03T18:48:58.536Z,3.52
2018-10-03T18:51:26.063Z,3.70
2018-10-03T18:53:54.210Z,3.47
2018-10-03T18:56:23.156Z,3.45
2018-10-03T18:58:51.005Z,3.45
2018-10-03T19:01:18.395Z,3.55
2018-10-03T19:03:45.678Z,4.03
2018-10-03T19:06:13.009Z,4.20
2018-10-03T19:08:40.289Z,4.25
2018-10-03T19:11:07.599Z,3.65
2018-10-03T19:13:34.927Z,3.80
2018-10-03T19:16:02.193Z,4.37
2018-10-03T19:18:29.523Z,3.90
2018-10-03T19:20:57.473Z,4.67
2018-10-03T19:23:27.546Z,4.45
2018-10-03T19:25:55.304Z,4.42
2018-10-03T19:28:23.359Z,4.28
2018-10-03T19:30:52.825Z,5.10
2018-10-03T19:33:21.569Z,3.55
2018-10-03T19:35:49.671Z,4.60
2018-10-03T19:38:18.013Z,3.50
2018-10-03T19:40:45.525Z,3.87
2018-10-03T19:43:13.203Z,4.47
2018-10-03T19:45:40.534Z,3.75
2018-10-03T19:48:07.939Z,4.10
2018-10-03T19:50:35.310Z,3.95
2018-10-03T19:53:02.599Z,3.70
2018-10-03T19:55:30.079Z,4.10
2018-10-03T19:57:57.846Z,3.83
2018-10-03T20:00:25.576Z,4.28
2018-10-03T20:02:53.185Z,4.00
2018-10-03T20:05:22.952Z,4.05
2018-10-03T20:07:53.326Z,4.22
2018-10-03T20:10:23.659Z,4.25
2018-10-03T20:12:54.387Z,6.50
2018-10-03T20:15:23.229Z,3.75
2018-10-03T20:17:52.245Z,4.30
2018-10-03T20:20:19.677Z,3.40
2018-10-03T20:22:48.704Z,4.83
2018-10-03T20:25:16.454Z,3.70
2018-10-03T20:27:47.604Z,3.70
2018-10-03T20:30:16.196Z,4.67
2018-10-03T20:32:45.307Z,4.97
2018-10-03T20:35:17.708Z,3.77
2018-10-03T20:37:48.527Z,3.47
2018-10-03T20:40:21.724Z,3.58
2018-10-03T20:42:51.849Z,4.53
2018-10-03T20:45:20.821Z,4.10
2018-10-03T20:47:52.964Z,3.85
2018-10-03T20:50:25.269Z,3.90
2018-10-03T20:52:54.121Z,4.70
2018-10-03T20:55:23.655Z,4.45
2018-10-03T20:57:52.449Z,3.77
2018-10-03T21:00:21.844Z,4.22
2018-10-03T21:02:49.877Z,4.00
2018-10-03T21:05:19.065Z,4.53
2018-10-03T21:07:49.540Z,4.20
2018-10-03T21:10:19.448Z,3.90
2018-10-03T21:12:50.853Z,5.12
2018-10-03T21:15:19.906Z,4.22
2018-10-03T21:17:50.287Z,4.95
2018-10-03T21:20:19.453Z,4.22
2018-10-03T21:22:50.542Z,4.83
2018-10-03T21:25:20.584Z,4.50
2018-10-03T21:27:51.207Z,4.78
2018-10-03T21:30:25.761Z,4.80
2018-10-03T21:32:54.569Z,4.00
2018-10-03T21:35:23.905Z,4.30
2018-10-03T21:37:53.381Z,4.42
2018-10-03T21:40:23.231Z,4.37
2018-10-03T21:42:52.092Z,4.47
2018-10-03T21:45:21.460Z,4.33
2018-10-03T21:47:52.093Z,4.45
2018-10-03T21:50:23.794Z,4.10
2018-10-03T21:52:54.473Z,5.20
2018-10-03T21:55:24.975Z,4.00
2018-10-03T21:57:54.330Z,4.55
2018-10-03T22:00:26.487Z,4.35
2018-10-03T22:02:54.515Z,4.30
2018-10-03T22:05:22.598Z,4.87
2018-10-03T22:07:51.253Z,4.75
2018-10-03T22:10:22.517Z,4.05
2018-10-03T22:12:54.580Z,4.53
2018-10-03T22:15:25.856Z,4.40
2018-10-03T22:17:56.407Z,4.35
2018-10-03T22:20:24.175Z,4.30
2018-10-03T22:22:51.995Z,3.75
2018-10-03T22:25:20.260Z,4.17
2018-10-03T22:27:48.905Z,3.92
2018-10-03T22:30:16.669Z,4.08
2018-10-03T22:32:43.964Z,3.70
2018-10-03T22:35:11.210Z,4.75
2018-10-03T22:37:38.451Z,3.65
2018-10-03T22:40:05.729Z,3.50
2018-10-03T22:42:33.094Z,4.20
2018-10-03T22:45:01.209Z,3.85
2018-10-03T22:47:30.549Z,4.20
2018-10-03T22:49:58.672Z,2.80
2018-10-03T22:52:26.315Z,3.83
2018-10-03T22:54:54.766Z,3.85
2018-10-03T22:57:23.987Z,3.80
2018-10-03T22:59:53.592Z,3.75
2018-10-03T23:02:21.113Z,3.90
2018-10-03T23:04:50.372Z,3.90
2018-10-03T23:07:21.123Z,3.50
2018-10-03T23:09:48.978Z,3.02
2018-10-03T23:12:18.296Z,3.65
2018-10-03T23:14:49.209Z,4.37
2018-10-03T23:17:17.980Z,3.50
2018-10-03T23:19:45.948Z,4.30
2018-10-03T23:22:13.315Z,3.98
2018-10-03T23:24:40.576Z,4.10
2018-10-03T23:27:07.841Z,4.33
2018-10-03T23:29:47.584Z,3.75
2018-10-03T23:32:14.899Z,3.00
2018-10-03T23:34:42.187Z,3.20
2018-10-03T23:37:09.463Z,3.75
2018-10-03T23:39:36.831Z,3.62
2018-10-03T23:42:04.307Z,3.67
2018-10-03T23:44:31.531Z,3.25
2018-10-03T23:46:58.883Z,3.92
2018-10-03T23:49:26.223Z,3.45
2018-10-03T23:51:53.867Z,3.00
2018-10-03T23:54:21.434Z,3.47
2018-10-03T23:56:48.718Z,3.30
2018-10-03T23:59:16.055Z,3.30
